sensor_id;sensor_type;location;lat;lon;timestamp;pressure;altitude;pressure_sealevel;temperature;humidity
35307;BME280;21420;52.196;21.416;2023-05-07T00:02:00;100860.87;;;6.05;59.85
35307;BME280;21420;52.196;21.416;2023-05-07T00:04:27;100861.63;;;5.96;59.84
35307;BME280;21420;52.196;21.416;2023-05-07T00:06:55;100864.69;;;5.88;59.81
35307;BME280;21420;52.196;21.416;2023-05-07T00:09:22;100865.16;;;5.82;59.89
35307;BME280;21420;52.196;21.416;2023-05-07T00:11:48;100864.21;;;5.75;59.89
35307;BME280;21420;52.196;21.416;2023-05-07T00:14:15;100864.95;;;5.70;60.14
35307;BME280;21420;52.196;21.416;2023-05-07T00:16:42;100863.30;;;5.66;60.05
35307;BME280;21420;52.196;21.416;2023-05-07T00:19:08;100866.14;;;5.61;60.12
35307;BME280;21420;52.196;21.416;2023-05-07T00:21:35;100871.59;;;5.59;60.16
35307;BME280;21420;52.196;21.416;2023-05-07T00:24:02;100871.28;;;5.58;60.35
35307;BME280;21420;52.196;21.416;2023-05-07T00:26:28;100872.13;;;5.56;60.29
35307;BME280;21420;52.196;21.416;2023-05-07T00:28:55;100871.44;;;5.54;60.28
35307;BME280;21420;52.196;21.416;2023-05-07T00:31:21;100871.59;;;5.51;60.40
35307;BME280;21420;52.196;21.416;2023-05-07T00:33:48;100875.23;;;5.50;60.42
35307;BME280;21420;52.196;21.416;2023-05-07T00:36:15;100881.48;;;5.49;60.41
35307;BME280;21420;52.196;21.416;2023-05-07T00:38:41;100882.38;;;5.49;60.47
35307;BME280;21420;52.196;21.416;2023-05-07T00:41:08;100886.51;;;5.48;60.48
35307;BME280;21420;52.196;21.416;2023-05-07T00:43:35;100885.61;;;5.45;60.55
35307;BME280;21420;52.196;21.416;2023-05-07T00:46:01;100890.56;;;5.44;60.56
35307;BME280;21420;52.196;21.416;2023-05-07T00:48:28;100891.21;;;5.45;60.77
35307;BME280;21420;52.196;21.416;2023-05-07T00:50:56;100890.08;;;5.44;60.74
35307;BME280;21420;52.196;21.416;2023-05-07T00:53:23;100891.45;;;5.42;60.80
35307;BME280;21420;52.196;21.416;2023-05-07T00:55:51;100890.05;;;5.41;60.75
35307;BME280;21420;52.196;21.416;2023-05-07T00:58:17;100887.80;;;5.39;60.73
35307;BME280;21420;52.196;21.416;2023-05-07T01:00:44;100889.77;;;5.37;60.80
35307;BME280;21420;52.196;21.416;2023-05-07T01:03:10;100892.30;;;5.35;60.89
35307;BME280;21420;52.196;21.416;2023-05-07T01:05:38;100895.90;;;5.34;60.89
35307;BME280;21420;52.196;21.416;2023-05-07T01:08:05;100890.95;;;5.34;60.98
35307;BME280;21420;52.196;21.416;2023-05-07T01:10:32;100892.80;;;5.33;60.82
35307;BME280;21420;52.196;21.416;2023-05-07T01:12:59;100894.17;;;5.32;60.98
35307;BME280;21420;52.196;21.416;2023-05-07T01:15:27;100893.52;;;5.31;61.14
35307;BME280;21420;52.196;21.416;2023-05-07T01:17:55;100896.83;;;5.32;61.16
35307;BME280;21420;52.196;21.416;2023-05-07T01:20:28;100900.67;;;5.33;61.30
35307;BME280;21420;52.196;21.416;2023-05-07T01:22:56;100899.75;;;5.33;61.37
35307;BME280;21420;52.196;21.416;2023-05-07T01:25:24;100900.58;;;5.33;61.23
35307;BME280;21420;52.196;21.416;2023-05-07T01:27:52;100901.66;;;5.33;61.26
35307;BME280;21420;52.196;21.416;2023-05-07T01:30:21;100905.45;;;5.33;61.35
35307;BME280;21420;52.196;21.416;2023-05-07T01:32:52;100903.33;;;5.34;61.22
35307;BME280;21420;52.196;21.416;2023-05-07T01:35:24;100897.31;;;5.32;61.51
35307;BME280;21420;52.196;21.416;2023-05-07T01:37:51;100901.23;;;5.32;61.47
35307;BME280;21420;52.196;21.416;2023-05-07T01:40:19;100902.48;;;5.32;61.35
35307;BME280;21420;52.196;21.416;2023-05-07T01:42:45;100903.56;;;5.32;61.54
35307;BME280;21420;52.196;21.416;2023-05-07T01:45:12;100900.58;;;5.32;61.48
35307;BME280;21420;52.196;21.416;2023-05-07T01:47:39;100901.00;;;5.33;61.63
35307;BME280;21420;52.196;21.416;2023-05-07T01:50:07;100904.68;;;5.34;61.51
35307;BME280;21420;52.196;21.416;2023-05-07T01:52:38;100902.91;;;5.33;61.70
35307;BME280;21420;52.196;21.416;2023-05-07T01:55:05;100910.23;;;5.33;61.76
35307;BME280;21420;52.196;21.416;2023-05-07T01:57:32;100911.59;;;5.33;61.74
35307;BME280;21420;52.196;21.416;2023-05-07T01:59:59;100908.04;;;5.36;61.76
35307;BME280;21420;52.196;21.416;2023-05-07T02:02:25;100908.95;;;5.37;61.77
35307;BME280;21420;52.196;21.416;2023-05-07T02:04:53;100909.75;;;5.37;61.91
35307;BME280;21420;52.196;21.416;2023-05-07T02:07:21;100912.18;;;5.39;61.91
35307;BME280;21420;52.196;21.416;2023-05-07T02:09:48;100909.86;;;5.39;61.78
35307;BME280;21420;52.196;21.416;2023-05-07T02:12:15;100905.56;;;5.38;61.84
35307;BME280;21420;52.196;21.416;2023-05-07T02:14:42;100904.41;;;5.39;61.80
35307;BME280;21420;52.196;21.416;2023-05-07T02:17:14;100907.36;;;5.37;61.95
35307;BME280;21420;52.196;21.416;2023-05-07T02:19:41;100907.45;;;5.39;62.01
35307;BME280;21420;52.196;21.416;2023-05-07T02:22:09;100906.38;;;5.39;61.95
35307;BME280;21420;52.196;21.416;2023-05-07T02:24:36;100907.96;;;5.37;61.93
35307;BME280;21420;52.196;21.416;2023-05-07T02:27:04;100910.48;;;5.37;61.91
35307;BME280;21420;52.196;21.416;2023-05-07T02:29:32;100910.82;;;5.35;61.96
35307;BME280;21420;52.196;21.416;2023-05-07T02:31:59;100912.55;;;5.35;62.04
35307;BME280;21420;52.196;21.416;2023-05-07T02:34:25;100919.55;;;5.35;62.09
35307;BME280;21420;52.196;21.416;2023-05-07T02:36:52;100919.16;;;5.36;62.09
35307;BME280;21420;52.196;21.416;2023-05-07T02:39:21;100918.29;;;5.37;62.18
35307;BME280;21420;52.196;21.416;2023-05-07T02:41:48;100917.98;;;5.35;62.21
35307;BME280;21420;52.196;21.416;2023-05-07T02:44:14;100919.41;;;5.32;62.24
35307;BME280;21420;52.196;21.416;2023-05-07T02:46:42;100922.25;;;5.31;62.29
35307;BME280;21420;52.196;21.416;2023-05-07T02:49:10;100920.24;;;5.31;62.33
35307;BME280;21420;52.196;21.416;2023-05-07T02:51:37;100920.73;;;5.32;62.30
35307;BME280;21420;52.196;21.416;2023-05-07T02:54:07;100918.78;;;5.32;62.46
35307;BME280;21420;52.196;21.416;2023-05-07T02:56:33;100921.21;;;5.32;62.41
35307;BME280;21420;52.196;21.416;2023-05-07T02:59:00;100921.97;;;5.32;62.33
35307;BME280;21420;52.196;21.416;2023-05-07T03:01:29;100923.77;;;5.33;62.45
35307;BME280;21420;52.196;21.416;2023-05-07T03:04:04;100922.73;;;5.34;62.32
35307;BME280;21420;52.196;21.416;2023-05-07T03:06:31;100922.20;;;5.33;62.40
35307;BME280;21420;52.196;21.416;2023-05-07T03:08:58;100922.67;;;5.33;62.51
35307;BME280;21420;52.196;21.416;2023-05-07T03:11:24;100928.42;;;5.34;62.49
35307;BME280;21420;52.196;21.416;2023-05-07T03:13:51;100930.77;;;5.33;62.53
35307;BME280;21420;52.196;21.416;2023-05-07T03:16:18;100931.91;;;5.32;62.48
35307;BME280;21420;52.196;21.416;2023-05-07T03:18:45;100935.98;;;5.33;62.62
35307;BME280;21420;52.196;21.416;2023-05-07T03:21:12;100934.13;;;5.34;62.61
35307;BME280;21420;52.196;21.416;2023-05-07T03:23:38;100939.60;;;5.35;62.52
35307;BME280;21420;52.196;21.416;2023-05-07T03:26:05;100939.82;;;5.36;62.64
35307;BME280;21420;52.196;21.416;2023-05-07T03:28:31;100945.06;;;5.37;62.70
35307;BME280;21420;52.196;21.416;2023-05-07T03:31:00;100947.16;;;5.40;62.56
35307;BME280;21420;52.196;21.416;2023-05-07T03:33:28;100947.45;;;5.42;62.73
35307;BME280;21420;52.196;21.416;2023-05-07T03:35:54;100946.17;;;5.40;62.65
35307;BME280;21420;52.196;21.416;2023-05-07T03:38:22;100951.21;;;5.41;62.67
35307;BME280;21420;52.196;21.416;2023-05-07T03:40:49;100951.41;;;5.43;62.66
35307;BME280;21420;52.196;21.416;2023-05-07T03:43:16;100954.16;;;5.46;62.80
35307;BME280;21420;52.196;21.416;2023-05-07T03:45:46;100954.90;;;5.48;62.83
35307;BME280;21420;52.196;21.416;2023-05-07T03:48:17;100952.11;;;5.49;62.90
35307;BME280;21420;52.196;21.416;2023-05-07T03:50:44;100958.95;;;5.49;62.78
35307;BME280;21420;52.196;21.416;2023-05-07T03:53:11;100965.48;;;5.49;62.82
35307;BME280;21420;52.196;21.416;2023-05-07T03:55:38;100973.46;;;5.49;62.75
35307;BME280;21420;52.196;21.416;2023-05-07T03:58:05;100977.20;;;5.51;62.84
35307;BME280;21420;52.196;21.416;2023-05-07T04:00:31;100977.95;;;5.51;62.85
35307;BME280;21420;52.196;21.416;2023-05-07T04:03:06;100972.05;;;5.54;62.82
35307;BME280;21420;52.196;21.416;2023-05-07T04:05:33;100975.58;;;5.55;62.94
35307;BME280;21420;52.196;21.416;2023-05-07T04:08:01;100981.89;;;5.58;63.07
35307;BME280;21420;52.196;21.416;2023-05-07T04:10:36;100991.17;;;5.60;62.91
35307;BME280;21420;52.196;21.416;2023-05-07T04:13:06;100989.65;;;5.61;62.92
35307;BME280;21420;52.196;21.416;2023-05-07T04:15:33;100994.05;;;5.61;62.98
35307;BME280;21420;52.196;21.416;2023-05-07T04:18:00;100990.89;;;5.63;62.96
35307;BME280;21420;52.196;21.416;2023-05-07T04:20:26;100990.91;;;5.64;63.01
35307;BME280;21420;52.196;21.416;2023-05-07T04:22:58;100996.50;;;5.66;62.92
35307;BME280;21420;52.196;21.416;2023-05-07T04:25:24;101000.17;;;5.66;63.09
35307;BME280;21420;52.196;21.416;2023-05-07T04:27:56;100998.14;;;5.63;62.84
35307;BME280;21420;52.196;21.416;2023-05-07T04:30:24;100998.21;;;5.63;62.90
35307;BME280;21420;52.196;21.416;2023-05-07T04:32:52;101001.17;;;5.65;62.93
35307;BME280;21420;52.196;21.416;2023-05-07T04:35:19;101003.77;;;5.67;63.04
35307;BME280;21420;52.196;21.416;2023-05-07T04:37:46;101001.58;;;5.70;63.05
35307;BME280;21420;52.196;21.416;2023-05-07T04:40:12;101001.59;;;5.72;63.12
35307;BME280;21420;52.196;21.416;2023-05-07T04:42:40;101003.48;;;5.74;63.11
35307;BME280;21420;52.196;21.416;2023-05-07T04:45:07;101006.90;;;5.75;63.09
35307;BME280;21420;52.196;21.416;2023-05-07T04:47:36;101005.79;;;5.77;63.06
35307;BME280;21420;52.196;21.416;2023-05-07T04:50:03;101004.45;;;5.79;63.07
35307;BME280;21420;52.196;21.416;2023-05-07T04:52:29;101013.80;;;5.80;63.06
35307;BME280;21420;52.196;21.416;2023-05-07T04:55:01;101016.24;;;5.85;63.25
35307;BME280;21420;52.196;21.416;2023-05-07T04:57:29;101019.33;;;5.91;63.24
35307;BME280;21420;52.196;21.416;2023-05-07T04:59:57;101020.02;;;5.95;63.06
35307;BME280;21420;52.196;21.416;2023-05-07T05:02:24;101020.70;;;5.98;63.12
35307;BME280;21420;52.196;21.416;2023-05-07T05:04:51;101019.09;;;6.00;63.08
35307;BME280;21420;52.196;21.416;2023-05-07T05:07:18;101024.74;;;6.04;63.16
35307;BME280;21420;52.196;21.416;2023-05-07T05:09:45;101029.59;;;6.04;63.06
35307;BME280;21420;52.196;21.416;2023-05-07T05:12:11;101037.24;;;6.07;63.12
35307;BME280;21420;52.196;21.416;2023-05-07T05:14:38;101040.78;;;6.11;63.13
35307;BME280;21420;52.196;21.416;2023-05-07T05:17:12;101045.00;;;6.12;63.17
35307;BME280;21420;52.196;21.416;2023-05-07T05:19:38;101049.46;;;6.17;63.28
35307;BME280;21420;52.196;21.416;2023-05-07T05:22:05;101052.90;;;6.20;63.09
35307;BME280;21420;52.196;21.416;2023-05-07T05:24:32;101054.81;;;6.23;63.12
35307;BME280;21420;52.196;21.416;2023-05-07T05:27:00;101058.09;;;6.29;63.22
35307;BME280;21420;52.196;21.416;2023-05-07T05:29:28;101058.95;;;6.37;63.32
35307;BME280;21420;52.196;21.416;2023-05-07T05:31:55;101053.77;;;6.47;63.29
35307;BME280;21420;52.196;21.416;2023-05-07T05:34:22;101059.65;;;6.56;63.29
35307;BME280;21420;52.196;21.416;2023-05-07T05:36:49;101060.52;;;6.64;63.33
35307;BME280;21420;52.196;21.416;2023-05-07T05:39:16;101059.47;;;6.77;63.35
35307;BME280;21420;52.196;21.416;2023-05-07T05:41:44;101059.16;;;6.88;63.31
35307;BME280;21420;52.196;21.416;2023-05-07T05:44:14;101055.33;;;6.96;63.17
35307;BME280;21420;52.196;21.416;2023-05-07T05:46:42;101058.13;;;7.06;63.20
35307;BME280;21420;52.196;21.416;2023-05-07T05:49:08;101059.88;;;7.20;63.08
35307;BME280;21420;52.196;21.416;2023-05-07T05:51:35;101064.30;;;7.36;63.20
35307;BME280;21420;52.196;21.416;2023-05-07T05:54:02;101065.54;;;7.51;63.24
35307;BME280;21420;52.196;21.416;2023-05-07T05:56:30;101069.02;;;7.65;63.18
35307;BME280;21420;52.196;21.416;2023-05-07T05:58:57;101067.39;;;7.73;63.01
35307;BME280;21420;52.196;21.416;2023-05-07T06:01:24;101068.48;;;7.80;62.92
35307;BME280;21420;52.196;21.416;2023-05-07T06:03:51;101071.56;;;7.83;62.84
35307;BME280;21420;52.196;21.416;2023-05-07T06:06:18;101069.29;;;7.94;62.93
35307;BME280;21420;52.196;21.416;2023-05-07T06:08:45;101072.34;;;8.04;62.90
35307;BME280;21420;52.196;21.416;2023-05-07T06:11:15;101070.14;;;8.07;62.77
35307;BME280;21420;52.196;21.416;2023-05-07T06:13:43;101074.16;;;8.13;62.77
35307;BME280;21420;52.196;21.416;2023-05-07T06:16:10;101075.88;;;8.18;62.75
35307;BME280;21420;52.196;21.416;2023-05-07T06:18:37;101074.28;;;8.32;62.76
35307;BME280;21420;52.196;21.416;2023-05-07T06:21:04;101076.88;;;8.46;62.56
35307;BME280;21420;52.196;21.416;2023-05-07T06:23:31;101081.88;;;8.58;62.43
35307;BME280;21420;52.196;21.416;2023-05-07T06:25:58;101082.23;;;8.69;62.54
35307;BME280;21420;52.196;21.416;2023-05-07T06:28:28;101079.96;;;8.88;62.62
35307;BME280;21420;52.196;21.416;2023-05-07T06:31:11;101080.89;;;8.98;62.41
35307;BME280;21420;52.196;21.416;2023-05-07T06:33:39;101082.65;;;9.01;62.24
35307;BME280;21420;52.196;21.416;2023-05-07T06:36:06;101085.12;;;9.00;62.07
35307;BME280;21420;52.196;21.416;2023-05-07T06:38:33;101088.76;;;8.98;61.97
35307;BME280;21420;52.196;21.416;2023-05-07T06:41:00;101092.84;;;9.08;62.07
35307;BME280;21420;52.196;21.416;2023-05-07T06:43:27;101101.17;;;9.23;62.09
35307;BME280;21420;52.196;21.416;2023-05-07T06:46:01;101104.65;;;9.27;61.91
35307;BME280;21420;52.196;21.416;2023-05-07T06:48:28;101104.39;;;9.17;61.62
35307;BME280;21420;52.196;21.416;2023-05-07T06:50:59;101096.48;;;9.11;61.60
35307;BME280;21420;52.196;21.416;2023-05-07T06:53:26;101090.86;;;9.14;61.61
35307;BME280;21420;52.196;21.416;2023-05-07T06:55:53;101096.85;;;9.14;61.38
35307;BME280;21420;52.196;21.416;2023-05-07T06:58:20;101104.34;;;9.12;61.30
35307;BME280;21420;52.196;21.416;2023-05-07T07:00:47;101100.42;;;9.23;61.61
35307;BME280;21420;52.196;21.416;2023-05-07T07:03:13;101102.56;;;9.39;61.55
35307;BME280;21420;52.196;21.416;2023-05-07T07:05:41;101104.84;;;9.45;61.26
35307;BME280;21420;52.196;21.416;2023-05-07T07:08:08;101116.17;;;9.44;61.05
35307;BME280;21420;52.196;21.416;2023-05-07T07:10:35;101115.51;;;9.33;60.87
35307;BME280;21420;52.196;21.416;2023-05-07T07:13:02;101112.84;;;9.25;60.85
35307;BME280;21420;52.196;21.416;2023-05-07T07:15:29;101117.80;;;9.26;61.13
35307;BME280;21420;52.196;21.416;2023-05-07T07:17:56;101115.57;;;9.28;60.94
35307;BME280;21420;52.196;21.416;2023-05-07T07:20:23;101120.53;;;9.30;60.85
35307;BME280;21420;52.196;21.416;2023-05-07T07:22:50;101130.40;;;9.34;60.94
35307;BME280;21420;52.196;21.416;2023-05-07T07:25:17;101125.55;;;9.42;60.97
35307;BME280;21420;52.196;21.416;2023-05-07T07:27:44;101127.48;;;9.49;60.88
35307;BME280;21420;52.196;21.416;2023-05-07T07:30:11;101125.58;;;9.55;60.79
35307;BME280;21420;52.196;21.416;2023-05-07T07:32:39;101131.80;;;9.53;60.64
35307;BME280;21420;52.196;21.416;2023-05-07T07:35:06;101138.31;;;9.53;60.43
35307;BME280;21420;52.196;21.416;2023-05-07T07:37:34;101143.30;;;9.57;60.53
35307;BME280;21420;52.196;21.416;2023-05-07T07:40:01;101144.89;;;9.55;60.47
35307;BME280;21420;52.196;21.416;2023-05-07T07:42:28;101134.02;;;9.61;60.64
35307;BME280;21420;52.196;21.416;2023-05-07T07:44:56;101129.30;;;9.71;60.57
35307;BME280;21420;52.196;21.416;2023-05-07T07:47:24;101132.25;;;9.92;60.66
35307;BME280;21420;52.196;21.416;2023-05-07T07:49:51;101139.36;;;10.12;60.47
35307;BME280;21420;52.196;21.416;2023-05-07T07:52:18;101135.73;;;10.22;60.34
35307;BME280;21420;52.196;21.416;2023-05-07T07:54:45;101143.40;;;10.39;60.33
35307;BME280;21420;52.196;21.416;2023-05-07T07:57:12;101142.02;;;10.56;60.22
35307;BME280;21420;52.196;21.416;2023-05-07T07:59:39;101150.97;;;10.47;59.72
35307;BME280;21420;52.196;21.416;2023-05-07T08:02:06;101146.98;;;10.40;59.76
35307;BME280;21420;52.196;21.416;2023-05-07T08:04:33;101146.80;;;10.45;59.69
35307;BME280;21420;52.196;21.416;2023-05-07T08:07:03;101149.80;;;10.33;59.40
35307;BME280;21420;52.196;21.416;2023-05-07T08:09:31;101157.27;;;10.09;59.17
35307;BME280;21420;52.196;21.416;2023-05-07T08:11:58;101159.43;;;9.93;59.12
35307;BME280;21420;52.196;21.416;2023-05-07T08:14:25;101148.55;;;9.87;59.25
35307;BME280;21420;52.196;21.416;2023-05-07T08:16:52;101155.02;;;9.77;59.26
35307;BME280;21420;52.196;21.416;2023-05-07T08:19:19;101165.33;;;9.77;59.45
35307;BME280;21420;52.196;21.416;2023-05-07T08:21:46;101162.61;;;9.68;59.05
35307;BME280;21420;52.196;21.416;2023-05-07T08:24:15;101161.33;;;9.56;59.04
35307;BME280;21420;52.196;21.416;2023-05-07T08:26:42;101161.53;;;9.54;59.17
35307;BME280;21420;52.196;21.416;2023-05-07T08:29:09;101165.17;;;9.52;59.22
35307;BME280;21420;52.196;21.416;2023-05-07T08:31:36;101168.48;;;9.49;59.10
35307;BME280;21420;52.196;21.416;2023-05-07T08:34:03;101178.88;;;9.45;59.13
35307;BME280;21420;52.196;21.416;2023-05-07T08:36:29;101177.98;;;9.44;59.09
35307;BME280;21420;52.196;21.416;2023-05-07T08:38:56;101181.52;;;9.43;59.16
35307;BME280;21420;52.196;21.416;2023-05-07T08:41:23;101172.22;;;9.53;59.23
35307;BME280;21420;52.196;21.416;2023-05-07T08:43:50;101170.67;;;9.46;58.84
35307;BME280;21420;52.196;21.416;2023-05-07T08:46:20;101174.80;;;9.36;58.79
35307;BME280;21420;52.196;21.416;2023-05-07T08:48:48;101177.74;;;9.40;58.97
35307;BME280;21420;52.196;21.416;2023-05-07T08:51:19;101172.97;;;9.53;59.08
35307;BME280;21420;52.196;21.416;2023-05-07T08:53:48;101182.05;;;9.65;59.09
35307;BME280;21420;52.196;21.416;2023-05-07T08:56:18;101183.81;;;9.73;58.91
35307;BME280;21420;52.196;21.416;2023-05-07T08:58:48;101182.20;;;9.92;58.91
35307;BME280;21420;52.196;21.416;2023-05-07T09:01:16;101181.85;;;10.26;59.21
35307;BME280;21420;52.196;21.416;2023-05-07T09:03:46;101184.66;;;10.47;59.06
35307;BME280;21420;52.196;21.416;2023-05-07T09:06:13;101187.98;;;10.60;58.80
35307;BME280;21420;52.196;21.416;2023-05-07T09:08:41;101180.72;;;10.78;58.81
35307;BME280;21420;52.196;21.416;2023-05-07T09:11:07;101185.65;;;10.91;58.77
35307;BME280;21420;52.196;21.416;2023-05-07T09:13:35;101189.63;;;11.43;59.22
35307;BME280;21420;52.196;21.416;2023-05-07T09:16:12;101186.45;;;11.59;58.52
35307;BME280;21420;52.196;21.416;2023-05-07T09:18:43;101188.66;;;11.36;57.75
35307;BME280;21420;52.196;21.416;2023-05-07T09:21:15;101196.58;;;11.15;57.46
35307;BME280;21420;52.196;21.416;2023-05-07T09:23:42;101198.98;;;10.95;57.33
35307;BME280;21420;52.196;21.416;2023-05-07T09:26:09;101197.32;;;10.80;57.37
35307;BME280;21420;52.196;21.416;2023-05-07T09:28:42;101210.33;;;10.67;57.31
35307;BME280;21420;52.196;21.416;2023-05-07T09:31:11;101211.06;;;10.58;57.31
35307;BME280;21420;52.196;21.416;2023-05-07T09:33:39;101212.94;;;10.60;57.48
35307;BME280;21420;52.196;21.416;2023-05-07T09:36:08;101214.35;;;10.57;57.24
35307;BME280;21420;52.196;21.416;2023-05-07T09:38:37;101212.06;;;10.52;57.40
35307;BME280;21420;52.196;21.416;2023-05-07T09:41:07;101219.90;;;10.52;57.45
35307;BME280;21420;52.196;21.416;2023-05-07T09:43:40;101214.92;;;10.51;57.35
35307;BME280;21420;52.196;21.416;2023-05-07T09:46:11;101220.12;;;10.67;57.58
35307;BME280;21420;52.196;21.416;2023-05-07T09:48:41;101222.48;;;10.83;57.57
35307;BME280;21420;52.196;21.416;2023-05-07T09:51:24;101225.27;;;10.88;57.45
35307;BME280;21420;52.196;21.416;2023-05-07T09:53:53;101226.59;;;10.67;56.77
35307;BME280;21420;52.196;21.416;2023-05-07T09:56:21;101228.19;;;10.42;56.72
35307;BME280;21420;52.196;21.416;2023-05-07T09:58:49;101234.27;;;10.27;56.73
35307;BME280;21420;52.196;21.416;2023-05-07T10:01:19;101239.44;;;10.17;56.82
35307;BME280;21420;52.196;21.416;2023-05-07T10:03:49;101239.23;;;10.14;56.89
35307;BME280;21420;52.196;21.416;2023-05-07T10:06:19;101234.21;;;10.14;56.90
35307;BME280;21420;52.196;21.416;2023-05-07T10:08:46;101233.33;;;10.07;56.70
35307;BME280;21420;52.196;21.416;2023-05-07T10:11:13;101235.08;;;9.91;56.58
35307;BME280;21420;52.196;21.416;2023-05-07T10:13:43;101239.70;;;9.77;56.60
35307;BME280;21420;52.196;21.416;2023-05-07T10:16:10;101250.63;;;9.68;56.66
35307;BME280;21420;52.196;21.416;2023-05-07T10:18:44;101245.23;;;9.62;56.63
35307;BME280;21420;52.196;21.416;2023-05-07T10:21:21;101244.79;;;9.55;56.58
35307;BME280;21420;52.196;21.416;2023-05-07T10:23:58;101251.70;;;9.56;56.73
35307;BME280;21420;52.196;21.416;2023-05-07T10:26:29;101249.14;;;9.63;56.75
35307;BME280;21420;52.196;21.416;2023-05-07T10:29:01;101254.88;;;9.66;56.77
35307;BME280;21420;52.196;21.416;2023-05-07T10:31:47;101258.08;;;9.67;56.86
35307;BME280;21420;52.196;21.416;2023-05-07T10:34:21;101260.73;;;9.68;56.72
35307;BME280;21420;52.196;21.416;2023-05-07T10:36:50;101258.12;;;9.63;56.75
35307;BME280;21420;52.196;21.416;2023-05-07T10:39:20;101259.94;;;9.62;56.79
35307;BME280;21420;52.196;21.416;2023-05-07T10:41:48;101261.58;;;9.62;56.66
35307;BME280;21420;52.196;21.416;2023-05-07T10:44:28;101260.25;;;9.65;56.76
35307;BME280;21420;52.196;21.416;2023-05-07T10:47:18;101271.36;;;9.75;56.85
35307;BME280;21420;52.196;21.416;2023-05-07T10:52:24;101268.77;;;9.81;56.66
35307;BME280;21420;52.196;21.416;2023-05-07T10:55:19;101271.61;;;9.80;56.60
35307;BME280;21420;52.196;21.416;2023-05-07T11:04:18;101274.25;;;9.80;56.48
35307;BME280;21420;52.196;21.416;2023-05-07T11:15:10;101277.10;;;10.33;56.63
35307;BME280;21420;52.196;21.416;2023-05-07T11:17:55;101284.30;;;10.22;56.25
35307;BME280;21420;52.196;21.416;2023-05-07T11:20:49;101289.54;;;10.12;56.18
35307;BME280;21420;52.196;21.416;2023-05-07T11:26:12;101282.45;;;9.94;56.10
35307;BME280;21420;52.196;21.416;2023-05-07T11:28:41;101288.65;;;10.05;56.34
35307;BME280;21420;52.196;21.416;2023-05-07T11:31:09;101283.86;;;10.32;56.71
35307;BME280;21420;52.196;21.416;2023-05-07T11:33:38;101278.84;;;10.82;57.15
35307;BME280;21420;52.196;21.416;2023-05-07T11:36:07;101282.02;;;11.40;57.21
35307;BME280;21420;52.196;21.416;2023-05-07T11:38:39;101291.14;;;11.66;56.77
35307;BME280;21420;52.196;21.416;2023-05-07T11:41:06;101292.56;;;11.72;56.32
35307;BME280;21420;52.196;21.416;2023-05-07T11:43:34;101296.25;;;11.61;55.98
35307;BME280;21420;52.196;21.416;2023-05-07T11:46:09;101291.11;;;11.57;55.80
35307;BME280;21420;52.196;21.416;2023-05-07T11:48:38;101290.42;;;11.46;55.59
35307;BME280;21420;52.196;21.416;2023-05-07T11:51:06;101294.79;;;11.32;55.63
35307;BME280;21420;52.196;21.416;2023-05-07T11:53:40;101297.69;;;11.22;55.50
35307;BME280;21420;52.196;21.416;2023-05-07T11:58:35;101301.42;;;11.28;55.62
35307;BME280;21420;52.196;21.416;2023-05-07T12:01:02;101300.09;;;11.40;55.60
35307;BME280;21420;52.196;21.416;2023-05-07T12:03:28;101302.04;;;11.44;55.56
35307;BME280;21420;52.196;21.416;2023-05-07T12:06:01;101305.65;;;11.44;55.36
35307;BME280;21420;52.196;21.416;2023-05-07T12:08:27;101306.91;;;11.43;55.27
35307;BME280;21420;52.196;21.416;2023-05-07T12:10:54;101307.45;;;11.58;55.47
35307;BME280;21420;52.196;21.416;2023-05-07T12:13:23;101304.96;;;11.97;55.94
35307;BME280;21420;52.196;21.416;2023-05-07T12:15:51;101306.89;;;12.46;56.00
35307;BME280;21420;52.196;21.416;2023-05-07T12:18:19;101302.15;;;12.91;55.77
35307;BME280;21420;52.196;21.416;2023-05-07T12:20:47;101294.16;;;13.34;55.87
35307;BME280;21420;52.196;21.416;2023-05-07T12:23:14;101297.13;;;13.78;55.55
35307;BME280;21420;52.196;21.416;2023-05-07T12:25:42;101297.85;;;14.26;55.69
35307;BME280;21420;52.196;21.416;2023-05-07T12:28:17;101297.48;;;14.60;55.02
35307;BME280;21420;52.196;21.416;2023-05-07T12:30:48;101301.33;;;14.68;54.65
35307;BME280;21420;52.196;21.416;2023-05-07T12:33:18;101301.91;;;14.67;54.23
35307;BME280;21420;52.196;21.416;2023-05-07T12:35:47;101295.75;;;14.76;54.37
35307;BME280;21420;52.196;21.416;2023-05-07T12:38:16;101300.65;;;14.78;54.10
35307;BME280;21420;52.196;21.416;2023-05-07T12:40:44;101305.36;;;14.58;53.80
35307;BME280;21420;52.196;21.416;2023-05-07T12:43:24;101307.77;;;14.43;53.82
35307;BME280;21420;52.196;21.416;2023-05-07T12:45:54;101307.75;;;14.28;53.55
35307;BME280;21420;52.196;21.416;2023-05-07T12:48:21;101308.64;;;14.02;53.17
35307;BME280;21420;52.196;21.416;2023-05-07T12:51:00;101308.08;;;13.85;53.31
35307;BME280;21420;52.196;21.416;2023-05-07T12:53:28;101312.71;;;13.81;53.51
35307;BME280;21420;52.196;21.416;2023-05-07T12:55:58;101314.90;;;13.89;53.63
35307;BME280;21420;52.196;21.416;2023-05-07T12:58:30;101319.43;;;13.74;52.93
35307;BME280;21420;52.196;21.416;2023-05-07T13:01:01;101320.26;;;13.52;52.88
35307;BME280;21420;52.196;21.416;2023-05-07T13:03:30;101320.73;;;13.50;53.20
35307;BME280;21420;52.196;21.416;2023-05-07T13:06:18;101319.86;;;13.64;53.16
35307;BME280;21420;52.196;21.416;2023-05-07T13:08:44;101318.80;;;13.43;52.28
35307;BME280;21420;52.196;21.416;2023-05-07T13:11:12;101321.48;;;13.22;52.31
35307;BME280;21420;52.196;21.416;2023-05-07T13:13:40;101320.05;;;13.31;52.65
35307;BME280;21420;52.196;21.416;2023-05-07T13:16:09;101316.23;;;13.32;52.41
35307;BME280;21420;52.196;21.416;2023-05-07T13:18:39;101321.03;;;13.25;52.38